createdAt,value
2023-05-10T00:00:50.185Z,2.58
2023-05-10T00:03:54.763Z,2.65
2023-05-10T00:06:59.760Z,3.05
2023-05-10T00:10:04.345Z,2.83
2023-05-10T00:13:08.345Z,2.53
2023-05-10T00:16:16.869Z,2.45
2023-05-10T00:19:22.688Z,2.70
2023-05-10T00:22:29.238Z,2.80
2023-05-10T00:25:37.146Z,2.75
2023-05-10T00:29:30.919Z,2.80
2023-05-10T00:40:48.276Z,2.50
2023-05-10T00:44:01.498Z,3.00
2023-05-10T00:52:50.010Z,3.30
2023-05-10T00:59:37.190Z,3.08
2023-05-10T01:02:46.492Z,3.30
2023-05-10T01:05:54.413Z,3.15
2023-05-10T01:09:04.128Z,3.05
2023-05-10T01:12:12.630Z,3.33
2023-05-10T01:15:21.617Z,3.50
2023-05-10T01:18:29.715Z,3.65
2023-05-10T01:22:15.169Z,3.13
2023-05-10T01:25:49.488Z,2.88
2023-05-10T01:29:17.532Z,3.22
2023-05-10T01:37:14.754Z,3.67
2023-05-10T01:40:57.984Z,3.40
2023-05-10T01:45:37.935Z,3.63
2023-05-10T01:49:39.004Z,3.75
2023-05-10T01:53:02.966Z,3.53
2023-05-10T01:56:12.609Z,4.18
2023-05-10T01:59:22.847Z,3.58
2023-05-10T02:02:30.985Z,3.70
2023-05-10T02:05:42.261Z,3.70
2023-05-10T02:08:50.995Z,4.20
2023-05-10T02:11:56.569Z,4.00
2023-05-10T02:15:12.420Z,3.40
2023-05-10T02:18:22.270Z,4.00
2023-05-10T02:21:32.026Z,3.42
2023-05-10T02:24:42.913Z,3.92
2023-05-10T02:27:50.334Z,3.70
2023-05-10T02:34:12.910Z,3.60
2023-05-10T02:37:49.573Z,3.72
2023-05-10T02:41:06.666Z,4.00
2023-05-10T02:44:15.424Z,3.78
2023-05-10T02:47:25.650Z,4.22
2023-05-10T02:50:50.941Z,3.90
2023-05-10T02:54:15.585Z,4.32
2023-05-10T03:00:52.593Z,3.90
2023-05-10T03:04:12.700Z,3.90
2023-05-10T03:07:22.378Z,4.35
2023-05-10T03:10:30.900Z,3.90
2023-05-10T03:13:53.211Z,3.97
2023-05-10T03:17:55.809Z,4.22
2023-05-10T03:21:10.028Z,3.65
2023-05-10T03:24:21.422Z,3.97
2023-05-10T03:27:35.132Z,3.50
2023-05-10T03:31:11.900Z,3.97
2023-05-10T03:34:29.433Z,4.13
2023-05-10T03:37:34.164Z,3.80
2023-05-10T03:40:42.214Z,3.75
2023-05-10T03:43:48.123Z,3.80
2023-05-10T03:46:54.573Z,4.03
2023-05-10T03:50:00.124Z,4.35
2023-05-10T03:53:06.816Z,4.63
2023-05-10T03:56:13.121Z,3.60
2023-05-10T03:59:18.973Z,4.53
2023-05-10T04:02:25.341Z,4.10
2023-05-10T04:05:31.527Z,4.28
2023-05-10T04:08:37.633Z,3.92
2023-05-10T04:11:46.013Z,4.75
2023-05-10T04:15:07.935Z,4.68
2023-05-10T04:18:15.896Z,4.85
2023-05-10T04:21:21.869Z,4.30
2023-05-10T04:24:28.705Z,4.32
2023-05-10T04:27:35.920Z,4.35
2023-05-10T04:30:41.775Z,4.53
2023-05-10T04:33:49.830Z,4.55
2023-05-10T04:37:24.403Z,4.53
2023-05-10T04:40:35.763Z,4.68
2023-05-10T04:43:46.583Z,4.35
2023-05-10T04:46:54.163Z,4.05
2023-05-10T04:50:02.156Z,4.25
2023-05-10T04:52:54.917Z,4.75
2023-05-10T04:55:59.565Z,4.32
2023-05-10T04:59:04.002Z,4.95
2023-05-10T05:02:08.670Z,3.95
2023-05-10T05:05:13.824Z,3.90
2023-05-10T05:08:19.049Z,4.10
2023-05-10T05:11:23.357Z,5.28
2023-05-10T05:14:27.705Z,4.30
2023-05-10T05:30:40.699Z,4.97
2023-05-10T05:38:07.776Z,4.75
2023-05-10T05:41:14.730Z,4.57
2023-05-10T05:44:34.735Z,4.55
2023-05-10T05:51:52.651Z,5.50
2023-05-10T05:55:08.720Z,4.40
2023-05-10T05:59:29.618Z,5.03
2023-05-10T06:03:04.932Z,4.63
2023-05-10T06:06:26.297Z,4.50
2023-05-10T06:09:48.126Z,4.60
2023-05-10T06:14:26.798Z,4.47
2023-05-10T06:17:33.611Z,5.03
2023-05-10T06:20:53.973Z,4.95
2023-05-10T06:24:14.666Z,4.60
2023-05-10T06:27:24.914Z,4.75
2023-05-10T06:38:55.618Z,5.05
2023-05-10T06:42:07.313Z,4.88
2023-05-10T06:45:16.311Z,4.47
2023-05-10T06:48:22.827Z,4.70
2023-05-10T06:51:30.138Z,4.78
2023-05-10T06:54:34.928Z,4.53
2023-05-10T06:57:41.820Z,4.18
2023-05-10T07:00:50.489Z,4.38
2023-05-10T07:03:57.949Z,4.85
2023-05-10T07:07:04.462Z,4.65
2023-05-10T07:10:10.085Z,4.28
2023-05-10T07:13:17.048Z,4.72
2023-05-10T07:16:23.733Z,4.97
2023-05-10T07:19:30.399Z,4.75
2023-05-10T07:22:37.423Z,4.18
2023-05-10T07:25:42.676Z,4.60
2023-05-10T07:28:49.182Z,5.05
2023-05-10T07:31:58.901Z,4.47
2023-05-10T07:34:56.155Z,4.47
2023-05-10T07:38:06.572Z,5.25
2023-05-10T07:41:12.958Z,4.85
2023-05-10T07:44:19.594Z,4.93
2023-05-10T07:47:24.506Z,5.35
2023-05-10T07:50:29.054Z,5.03
2023-05-10T07:53:33.169Z,4.53
2023-05-10T07:56:37.711Z,5.00
2023-05-10T07:59:42.368Z,4.75
2023-05-10T08:02:48.285Z,5.38
2023-05-10T08:05:52.295Z,5.60
2023-05-10T08:08:57.288Z,4.80
2023-05-10T08:12:01.890Z,5.03
2023-05-10T08:15:07.700Z,4.68
2023-05-10T08:18:12.009Z,5.43
2023-05-10T08:21:17.303Z,4.78
2023-05-10T08:24:22.299Z,5.10
2023-05-10T08:27:26.853Z,5.28
2023-05-10T08:30:30.998Z,4.78
2023-05-10T08:33:35.109Z,4.80
2023-05-10T08:36:39.312Z,4.95
2023-05-10T08:39:43.948Z,5.82
2023-05-10T08:46:08.715Z,5.28
2023-05-10T08:49:19.251Z,6.00
2023-05-10T08:52:27.570Z,6.25
2023-05-10T08:55:39.519Z,6.05
2023-05-10T08:58:50.410Z,5.50
2023-05-10T09:02:00.073Z,6.88
2023-05-10T09:05:06.500Z,6.88
2023-05-10T09:08:12.913Z,7.13
2023-05-10T09:11:18.405Z,6.65
2023-05-10T09:14:25.927Z,6.88
2023-05-10T09:17:31.951Z,7.88
2023-05-10T09:20:36.779Z,7.78
2023-05-10T09:23:48.139Z,7.70
2023-05-10T09:26:53.166Z,7.53
2023-05-10T09:29:58.448Z,7.93
2023-05-10T09:33:03.674Z,8.68
2023-05-10T09:36:09.557Z,8.10
2023-05-10T09:39:14.273Z,8.35
2023-05-10T09:42:19.718Z,8.48
2023-05-10T09:45:26.848Z,9.27
2023-05-10T09:48:32.417Z,9.40
2023-05-10T09:51:37.316Z,8.57
2023-05-10T09:54:54.642Z,8.35
2023-05-10T09:58:03.795Z,8.30
2023-05-10T10:01:15.835Z,8.63
2023-05-10T10:04:22.659Z,8.55
2023-05-10T10:07:28.532Z,9.20
2023-05-10T10:10:34.551Z,8.35
2023-05-10T10:13:39.076Z,9.57
2023-05-10T10:16:51.804Z,10.18
2023-05-10T10:20:11.715Z,10.10
2023-05-10T10:23:17.752Z,10.85
2023-05-10T10:26:22.554Z,11.70
2023-05-10T10:29:40.493Z,12.68
2023-05-10T10:33:30.441Z,12.55
2023-05-10T10:36:48.046Z,14.38
2023-05-10T10:39:52.678Z,15.10
2023-05-10T10:42:58.393Z,16.08
2023-05-10T10:46:13.879Z,15.85
2023-05-10T10:49:18.364Z,19.05
2023-05-10T10:52:35.067Z,19.13
2023-05-10T10:55:49.754Z,18.58
2023-05-10T10:58:54.676Z,19.00
2023-05-10T11:02:02.252Z,17.70
2023-05-10T11:05:28.598Z,20.77
2023-05-10T11:08:44.904Z,19.30
2023-05-10T11:11:56.184Z,20.08
2023-05-10T11:18:33.230Z,19.30
2023-05-10T11:21:50.122Z,19.77
2023-05-10T11:24:59.589Z,20.02
2023-05-10T11:28:06.310Z,20.10
2023-05-10T11:31:13.487Z,20.35
2023-05-10T11:34:36.523Z,20.02
2023-05-10T11:37:44.574Z,19.75
2023-05-10T11:40:52.901Z,19.08
2023-05-10T11:43:58.541Z,19.08
2023-05-10T11:47:03.455Z,20.73
2023-05-10T11:50:08.389Z,19.15
2023-05-10T11:53:14.458Z,20.33
2023-05-10T11:56:18.731Z,20.73
2023-05-10T11:59:22.843Z,21.70
2023-05-10T12:02:27.719Z,21.98
2023-05-10T12:05:36.714Z,22.35
2023-05-10T12:08:47.617Z,22.00
2023-05-10T12:11:57.982Z,21.23
2023-05-10T12:15:04.327Z,21.10
2023-05-10T12:18:11.661Z,22.27
2023-05-10T12:21:16.692Z,21.50
2023-05-10T12:24:22.537Z,20.85
2023-05-10T12:27:32.435Z,21.42
2023-05-10T12:30:37.989Z,20.00
2023-05-10T12:33:44.963Z,18.90
2023-05-10T12:36:56.344Z,19.60
2023-05-10T12:40:00.653Z,18.80
2023-05-10T12:43:07.476Z,17.92
2023-05-10T12:46:18.767Z,19.42
2023-05-10T12:49:23.389Z,18.08
2023-05-10T12:58:36.621Z,14.77
2023-05-10T13:01:41.197Z,15.13
2023-05-10T13:04:48.842Z,16.02
2023-05-10T13:07:54.774Z,14.43
2023-05-10T13:10:59.266Z,14.57
2023-05-10T13:14:04.370Z,15.25
2023-05-10T13:17:09.036Z,15.65
2023-05-10T13:20:13.957Z,14.95
2023-05-10T13:23:18.803Z,16.05
2023-05-10T13:26:23.124Z,13.77
2023-05-10T13:29:27.445Z,14.60
2023-05-10T13:32:31.811Z,15.43
2023-05-10T13:35:36.668Z,13.75
2023-05-10T13:55:20.193Z,13.68
2023-05-10T13:58:42.907Z,15.05
2023-05-10T14:02:03.660Z,16.58
2023-05-10T14:05:08.958Z,16.00
2023-05-10T14:08:19.369Z,16.17
2023-05-10T14:11:32.110Z,17.30
2023-05-10T14:14:45.314Z,17.08
2023-05-10T14:17:51.614Z,19.30
2023-05-10T14:21:02.550Z,18.20
2023-05-10T14:24:12.937Z,18.05
2023-05-10T14:27:20.677Z,18.23
2023-05-10T14:30:32.501Z,18.05
2023-05-10T14:33:40.987Z,16.52
2023-05-10T14:36:56.003Z,18.85
2023-05-10T14:40:07.819Z,18.88
2023-05-10T14:43:14.853Z,19.52
2023-05-10T14:46:22.819Z,18.52
2023-05-10T14:49:27.327Z,19.38
2023-05-10T14:52:34.174Z,19.60
2023-05-10T14:55:39.307Z,17.65
2023-05-10T14:58:43.680Z,17.05
2023-05-10T15:01:49.497Z,18.13
2023-05-10T15:04:54.429Z,15.50
2023-05-10T15:07:59.124Z,16.35
2023-05-10T15:11:04.056Z,14.32
2023-05-10T15:14:08.086Z,15.57
2023-05-10T15:17:12.613Z,16.90
2023-05-10T15:20:17.069Z,17.60
2023-05-10T15:23:21.303Z,15.90
2023-05-10T15:26:27.232Z,15.70
2023-05-10T15:29:32.445Z,14.63
2023-05-10T15:32:36.880Z,17.92
2023-05-10T15:35:41.986Z,16.17
2023-05-10T15:38:46.241Z,15.85
2023-05-10T15:41:50.619Z,16.73
2023-05-10T15:44:54.945Z,18.60
2023-05-10T15:48:02.649Z,19.55
2023-05-10T15:51:06.844Z,18.50
2023-05-10T15:54:11.303Z,18.85
2023-05-10T15:57:15.767Z,19.58
2023-05-10T16:00:20.645Z,20.58
2023-05-10T16:03:25.364Z,21.08
2023-05-10T16:06:29.433Z,20.77
2023-05-10T16:09:33.645Z,20.02
2023-05-10T16:12:39.224Z,18.65
2023-05-10T16:15:44.043Z,24.80
2023-05-10T16:18:48.645Z,24.92
2023-05-10T16:21:53.443Z,25.65
2023-05-10T16:24:59.775Z,25.58
2023-05-10T16:28:04.163Z,25.63
2023-05-10T16:31:08.511Z,24.67
2023-05-10T16:34:13.140Z,24.48
2023-05-10T16:41:16.758Z,22.17
2023-05-10T16:44:37.180Z,21.98
2023-05-10T16:51:56.526Z,18.10
2023-05-10T16:58:55.144Z,16.60
2023-05-10T17:02:41.021Z,17.90
2023-05-10T17:06:05.312Z,20.60
2023-05-10T17:10:52.514Z,22.70
2023-05-10T17:14:15.527Z,20.48
2023-05-10T17:17:40.477Z,20.35
2023-05-10T17:30:06.188Z,17.77
2023-05-10T17:33:34.802Z,18.30
2023-05-10T17:50:35.792Z,21.27
2023-05-10T17:53:45.577Z,24.08
2023-05-10T18:00:19.462Z,26.90
2023-05-10T18:03:24.530Z,21.08
2023-05-10T18:06:28.720Z,18.05
2023-05-10T18:09:34.081Z,17.38
2023-05-10T18:12:38.254Z,16.13
2023-05-10T18:15:42.891Z,16.00
2023-05-10T18:18:47.196Z,14.13
2023-05-10T18:24:58.414Z,14.25
2023-05-10T18:31:32.890Z,14.55
2023-05-10T18:35:43.591Z,14.80
2023-05-10T18:44:53.346Z,13.50
2023-05-10T18:53:08.476Z,13.00
2023-05-10T18:57:29.505Z,14.63
2023-05-10T19:00:51.348Z,15.20
2023-05-10T19:12:12.501Z,18.35
2023-05-10T19:19:42.742Z,20.92
2023-05-10T19:23:10.113Z,20.73
2023-05-10T19:26:53.667Z,23.05
2023-05-10T19:30:56.605Z,24.92
2023-05-10T19:39:26.889Z,26.92
2023-05-10T19:43:14.004Z,30.30
2023-05-10T20:27:23.759Z,32.15
2023-05-10T20:30:29.413Z,29.75
2023-05-10T20:33:36.114Z,29.42
2023-05-10T20:36:42.600Z,30.27
2023-05-10T20:39:49.812Z,27.77
2023-05-10T20:42:55.107Z,27.23
2023-05-10T20:49:10.403Z,26.30
2023-05-10T20:52:14.806Z,25.88
2023-05-10T20:55:19.853Z,24.13
2023-05-10T20:58:24.055Z,27.40
2023-05-10T21:01:28.236Z,28.63
2023-05-10T21:04:32.648Z,26.05
2023-05-10T21:07:37.768Z,28.00
2023-05-10T21:10:42.225Z,27.63
2023-05-10T21:13:46.552Z,27.67
2023-05-10T21:16:51.328Z,27.98
2023-05-10T21:19:55.810Z,26.95
2023-05-10T21:23:00.032Z,26.52
2023-05-10T21:26:05.432Z,24.95
2023-05-10T21:29:09.811Z,22.95
2023-05-10T21:32:14.968Z,22.42
2023-05-10T21:35:19.206Z,21.10
2023-05-10T21:38:23.520Z,19.73
2023-05-10T21:41:28.903Z,18.15
2023-05-10T21:44:33.425Z,17.38
2023-05-10T21:47:37.990Z,18.40
2023-05-10T21:50:43.745Z,18.38
2023-05-10T21:53:48.247Z,22.05
2023-05-10T21:56:52.812Z,21.25
2023-05-10T21:59:57.303Z,23.02
2023-05-10T22:03:02.608Z,22.60
2023-05-10T22:06:08.409Z,22.70
2023-05-10T22:09:12.410Z,20.80
2023-05-10T22:12:16.934Z,18.88
2023-05-10T22:15:21.380Z,17.42
2023-05-10T22:18:25.719Z,17.58
2023-05-10T22:21:30.645Z,17.33
2023-05-10T22:24:35.270Z,17.30
2023-05-10T22:27:39.349Z,19.25
2023-05-10T22:30:43.810Z,18.80
2023-05-10T22:33:47.977Z,17.10
2023-05-10T22:36:52.542Z,19.10
2023-05-10T22:43:01.111Z,16.85
2023-05-10T22:46:05.408Z,16.38
2023-05-10T22:49:09.800Z,14.55
2023-05-10T22:52:13.994Z,16.33
2023-05-10T22:58:22.276Z,21.80
2023-05-10T23:01:26.652Z,22.50
2023-05-10T23:04:31.582Z,25.17
2023-05-10T23:07:35.857Z,22.30
2023-05-10T23:10:39.874Z,22.70
2023-05-10T23:16:48.394Z,22.88
2023-05-10T23:19:52.780Z,24.98
2023-05-10T23:22:57.276Z,24.83
2023-05-10T23:26:02.277Z,25.35
2023-05-10T23:29:06.569Z,24.98
2023-05-10T23:32:11.130Z,26.95
2023-05-10T23:35:15.986Z,24.30
2023-05-10T23:38:21.268Z,26.88
2023-05-10T23:41:33.770Z,27.20
2023-05-10T23:44:39.804Z,22.60
2023-05-10T23:47:46.446Z,21.90
2023-05-10T23:50:52.523Z,25.10
2023-05-10T23:53:58.437Z,25.20
2023-05-10T23:57:03.734Z,26.35
